sensor_id;sensor_type;location;lat;lon;timestamp;P1;durP1;ratioP1;P2;durP2;ratioP2
71503;SDS011;59323;50.874;7.028;2023-04-25T00:01:44;11.50;;;2.88;;
71503;SDS011;59323;50.874;7.028;2023-04-25T00:04:10;9.57;;;2.27;;
71503;SDS011;59323;50.874;7.028;2023-04-25T00:06:36;9.20;;;2.53;;
71503;SDS011;59323;50.874;7.028;2023-04-25T00:09:03;9.35;;;2.53;;
71503;SDS011;59323;50.874;7.028;2023-04-25T00:11:32;6.63;;;2.40;;
71503;SDS011;59323;50.874;7.028;2023-04-25T00:13:57;11.57;;;2.25;;
71503;SDS011;59323;50.874;7.028;2023-04-25T00:16:24;11.93;;;2.83;;
71503;SDS011;59323;50.874;7.028;2023-04-25T00:18:50;8.02;;;2.55;;
71503;SDS011;59323;50.874;7.028;2023-04-25T00:21:18;9.73;;;2.70;;
71503;SDS011;59323;50.874;7.028;2023-04-25T00:23:44;9.35;;;2.53;;
71503;SDS011;59323;50.874;7.028;2023-04-25T00:26:10;11.60;;;2.65;;
71503;SDS011;59323;50.874;7.028;2023-04-25T00:28:36;9.68;;;2.53;;
71503;SDS011;59323;50.874;7.028;2023-04-25T00:31:02;10.37;;;2.50;;
71503;SDS011;59323;50.874;7.028;2023-04-25T00:33:28;15.23;;;3.10;;
71503;SDS011;59323;50.874;7.028;2023-04-25T00:35:54;8.87;;;2.50;;
71503;SDS011;59323;50.874;7.028;2023-04-25T00:38:22;9.05;;;2.25;;
71503;SDS011;59323;50.874;7.028;2023-04-25T00:40:47;12.65;;;3.08;;
71503;SDS011;59323;50.874;7.028;2023-04-25T00:43:17;10.27;;;2.77;;
71503;SDS011;59323;50.874;7.028;2023-04-25T00:45:43;9.80;;;2.30;;
71503;SDS011;59323;50.874;7.028;2023-04-25T00:48:08;10.13;;;2.80;;
71503;SDS011;59323;50.874;7.028;2023-04-25T00:50:34;11.90;;;2.30;;
71503;SDS011;59323;50.874;7.028;2023-04-25T00:53:01;8.30;;;2.63;;
71503;SDS011;59323;50.874;7.028;2023-04-25T00:55:28;10.98;;;2.50;;
71503;SDS011;59323;50.874;7.028;2023-04-25T00:57:53;9.07;;;2.30;;
71503;SDS011;59323;50.874;7.028;2023-04-25T01:00:19;12.02;;;2.78;;
71503;SDS011;59323;50.874;7.028;2023-04-25T01:02:45;11.13;;;2.42;;
71503;SDS011;59323;50.874;7.028;2023-04-25T01:05:14;12.23;;;2.53;;
71503;SDS011;59323;50.874;7.028;2023-04-25T01:07:46;10.10;;;2.78;;
71503;SDS011;59323;50.874;7.028;2023-04-25T01:10:13;12.23;;;2.53;;
71503;SDS011;59323;50.874;7.028;2023-04-25T01:12:41;10.02;;;2.90;;
71503;SDS011;59323;50.874;7.028;2023-04-25T01:15:10;10.90;;;2.57;;
71503;SDS011;59323;50.874;7.028;2023-04-25T01:17:44;6.88;;;2.20;;
71503;SDS011;59323;50.874;7.028;2023-04-25T01:20:09;10.57;;;3.00;;
71503;SDS011;59323;50.874;7.028;2023-04-25T01:22:36;10.33;;;2.40;;
71503;SDS011;59323;50.874;7.028;2023-04-25T01:25:04;11.27;;;2.50;;
71503;SDS011;59323;50.874;7.028;2023-04-25T01:27:30;10.50;;;2.35;;
71503;SDS011;59323;50.874;7.028;2023-04-25T01:29:59;9.95;;;2.65;;
71503;SDS011;59323;50.874;7.028;2023-04-25T01:32:34;10.98;;;2.92;;
71503;SDS011;59323;50.874;7.028;2023-04-25T01:35:09;11.30;;;2.53;;
71503;SDS011;59323;50.874;7.028;2023-04-25T01:37:42;9.80;;;2.60;;
71503;SDS011;59323;50.874;7.028;2023-04-25T01:40:09;8.07;;;2.42;;
71503;SDS011;59323;50.874;7.028;2023-04-25T01:42:38;8.75;;;2.40;;
71503;SDS011;59323;50.874;7.028;2023-04-25T01:45:05;9.43;;;2.65;;
71503;SDS011;59323;50.874;7.028;2023-04-25T01:47:32;9.43;;;2.77;;
71503;SDS011;59323;50.874;7.028;2023-04-25T01:50:02;9.95;;;2.85;;
71503;SDS011;59323;50.874;7.028;2023-04-25T01:52:31;8.23;;;2.55;;
71503;SDS011;59323;50.874;7.028;2023-04-25T01:55:02;9.63;;;2.72;;
71503;SDS011;59323;50.874;7.028;2023-04-25T01:57:27;9.18;;;2.80;;
71503;SDS011;59323;50.874;7.028;2023-04-25T02:00:04;9.37;;;3.07;;
71503;SDS011;59323;50.874;7.028;2023-04-25T02:02:36;10.82;;;2.90;;
71503;SDS011;59323;50.874;7.028;2023-04-25T02:05:10;8.20;;;2.80;;
71503;SDS011;59323;50.874;7.028;2023-04-25T02:07:40;10.60;;;2.88;;
71503;SDS011;59323;50.874;7.028;2023-04-25T02:10:14;9.52;;;2.83;;
71503;SDS011;59323;50.874;7.028;2023-04-25T02:12:40;14.00;;;2.90;;
71503;SDS011;59323;50.874;7.028;2023-04-25T02:15:08;12.43;;;2.88;;
71503;SDS011;59323;50.874;7.028;2023-04-25T02:17:33;9.70;;;2.87;;
71503;SDS011;59323;50.874;7.028;2023-04-25T02:20:02;11.38;;;3.25;;
71503;SDS011;59323;50.874;7.028;2023-04-25T02:22:31;12.98;;;3.20;;
71503;SDS011;59323;50.874;7.028;2023-04-25T02:25:18;13.23;;;3.07;;
71503;SDS011;59323;50.874;7.028;2023-04-25T02:27:45;15.13;;;2.92;;
71503;SDS011;59323;50.874;7.028;2023-04-25T02:30:20;7.93;;;2.60;;
71503;SDS011;59323;50.874;7.028;2023-04-25T02:32:48;7.82;;;2.47;;
71503;SDS011;59323;50.874;7.028;2023-04-25T02:35:19;9.63;;;2.50;;
71503;SDS011;59323;50.874;7.028;2023-04-25T02:37:45;11.70;;;2.60;;
71503;SDS011;59323;50.874;7.028;2023-04-25T02:40:10;11.10;;;3.00;;
71503;SDS011;59323;50.874;7.028;2023-04-25T02:42:36;9.50;;;2.90;;
71503;SDS011;59323;50.874;7.028;2023-04-25T02:45:06;11.43;;;2.63;;
71503;SDS011;59323;50.874;7.028;2023-04-25T02:47:32;10.18;;;2.67;;
71503;SDS011;59323;50.874;7.028;2023-04-25T02:50:05;15.87;;;3.33;;
71503;SDS011;59323;50.874;7.028;2023-04-25T02:52:33;10.45;;;3.17;;
71503;SDS011;59323;50.874;7.028;2023-04-25T02:55:09;12.07;;;3.37;;
71503;SDS011;59323;50.874;7.028;2023-04-25T02:57:35;14.05;;;2.90;;
71503;SDS011;59323;50.874;7.028;2023-04-25T03:00:01;8.60;;;2.43;;
71503;SDS011;59323;50.874;7.028;2023-04-25T03:02:26;10.30;;;2.92;;
71503;SDS011;59323;50.874;7.028;2023-04-25T03:07:42;12.03;;;2.23;;
71503;SDS011;59323;50.874;7.028;2023-04-25T03:10:11;13.55;;;3.17;;
71503;SDS011;59323;50.874;7.028;2023-04-25T03:12:39;13.57;;;3.13;;
71503;SDS011;59323;50.874;7.028;2023-04-25T03:15:06;11.77;;;3.60;;
71503;SDS011;59323;50.874;7.028;2023-04-25T03:17:41;10.88;;;2.40;;
71503;SDS011;59323;50.874;7.028;2023-04-25T03:20:07;10.17;;;2.60;;
71503;SDS011;59323;50.874;7.028;2023-04-25T03:22:36;12.05;;;2.38;;
71503;SDS011;59323;50.874;7.028;2023-04-25T03:25:04;9.98;;;2.22;;
71503;SDS011;59323;50.874;7.028;2023-04-25T03:27:33;13.73;;;2.37;;
71503;SDS011;59323;50.874;7.028;2023-04-25T03:29:58;10.45;;;2.30;;
71503;SDS011;59323;50.874;7.028;2023-04-25T03:32:30;11.17;;;2.70;;
71503;SDS011;59323;50.874;7.028;2023-04-25T03:34:55;12.17;;;2.40;;
71503;SDS011;59323;50.874;7.028;2023-04-25T03:37:23;10.73;;;2.35;;
71503;SDS011;59323;50.874;7.028;2023-04-25T03:39:51;11.85;;;2.97;;
71503;SDS011;59323;50.874;7.028;2023-04-25T03:42:21;7.40;;;2.33;;
71503;SDS011;59323;50.874;7.028;2023-04-25T03:44:52;11.02;;;3.05;;
71503;SDS011;59323;50.874;7.028;2023-04-25T03:47:17;14.43;;;2.83;;
71503;SDS011;59323;50.874;7.028;2023-04-25T03:49:42;13.27;;;2.97;;
71503;SDS011;59323;50.874;7.028;2023-04-25T03:52:17;10.55;;;2.25;;
71503;SDS011;59323;50.874;7.028;2023-04-25T03:54:43;10.93;;;2.25;;
71503;SDS011;59323;50.874;7.028;2023-04-25T03:57:17;10.30;;;3.10;;
71503;SDS011;59323;50.874;7.028;2023-04-25T03:59:48;10.00;;;2.80;;
71503;SDS011;59323;50.874;7.028;2023-04-25T04:02:13;11.93;;;2.88;;
71503;SDS011;59323;50.874;7.028;2023-04-25T04:04:41;14.20;;;3.10;;
71503;SDS011;59323;50.874;7.028;2023-04-25T04:07:09;11.35;;;2.25;;
71503;SDS011;59323;50.874;7.028;2023-04-25T04:09:35;13.13;;;2.53;;
71503;SDS011;59323;50.874;7.028;2023-04-25T04:12:00;13.30;;;2.43;;
71503;SDS011;59323;50.874;7.028;2023-04-25T04:14:26;9.00;;;2.45;;
71503;SDS011;59323;50.874;7.028;2023-04-25T04:16:55;11.68;;;2.92;;
71503;SDS011;59323;50.874;7.028;2023-04-25T04:19:29;13.23;;;3.13;;
71503;SDS011;59323;50.874;7.028;2023-04-25T04:22:03;11.73;;;2.72;;
71503;SDS011;59323;50.874;7.028;2023-04-25T04:24:29;9.43;;;3.17;;
71503;SDS011;59323;50.874;7.028;2023-04-25T04:26:57;12.03;;;3.07;;
71503;SDS011;59323;50.874;7.028;2023-04-25T04:29:22;10.93;;;2.85;;
71503;SDS011;59323;50.874;7.028;2023-04-25T04:31:51;15.40;;;3.30;;
71503;SDS011;59323;50.874;7.028;2023-04-25T04:34:22;13.75;;;2.92;;
71503;SDS011;59323;50.874;7.028;2023-04-25T04:36:49;10.18;;;2.80;;
71503;SDS011;59323;50.874;7.028;2023-04-25T04:39:14;12.07;;;2.77;;
71503;SDS011;59323;50.874;7.028;2023-04-25T04:41:40;13.40;;;2.90;;
71503;SDS011;59323;50.874;7.028;2023-04-25T04:44:08;12.38;;;3.08;;
71503;SDS011;59323;50.874;7.028;2023-04-25T04:46:36;17.80;;;3.10;;
71503;SDS011;59323;50.874;7.028;2023-04-25T04:49:12;11.07;;;2.83;;
71503;SDS011;59323;50.874;7.028;2023-04-25T04:51:48;13.57;;;2.60;;
71503;SDS011;59323;50.874;7.028;2023-04-25T04:54:24;9.65;;;2.75;;
71503;SDS011;59323;50.874;7.028;2023-04-25T04:56:53;10.68;;;2.97;;
71503;SDS011;59323;50.874;7.028;2023-04-25T04:59:24;18.07;;;3.40;;
71503;SDS011;59323;50.874;7.028;2023-04-25T05:01:53;13.95;;;3.08;;
71503;SDS011;59323;50.874;7.028;2023-04-25T05:04:20;15.70;;;2.93;;
71503;SDS011;59323;50.874;7.028;2023-04-25T05:06:46;12.10;;;3.17;;
71503;SDS011;59323;50.874;7.028;2023-04-25T05:09:17;13.07;;;2.80;;
71503;SDS011;59323;50.874;7.028;2023-04-25T05:11:44;9.88;;;2.60;;
71503;SDS011;59323;50.874;7.028;2023-04-25T05:14:09;16.83;;;3.47;;
71503;SDS011;59323;50.874;7.028;2023-04-25T05:16:34;14.45;;;3.53;;
71503;SDS011;59323;50.874;7.028;2023-04-25T05:19:00;14.67;;;3.30;;
71503;SDS011;59323;50.874;7.028;2023-04-25T05:21:25;17.03;;;3.20;;
71503;SDS011;59323;50.874;7.028;2023-04-25T05:23:52;17.45;;;3.70;;
71503;SDS011;59323;50.874;7.028;2023-04-25T05:26:18;18.75;;;3.33;;
71503;SDS011;59323;50.874;7.028;2023-04-25T05:28:45;16.23;;;3.45;;
71503;SDS011;59323;50.874;7.028;2023-04-25T05:31:11;12.10;;;2.70;;
71503;SDS011;59323;50.874;7.028;2023-04-25T05:33:37;16.58;;;3.08;;
71503;SDS011;59323;50.874;7.028;2023-04-25T05:36:02;15.43;;;3.30;;
71503;SDS011;59323;50.874;7.028;2023-04-25T05:38:28;15.65;;;3.33;;
71503;SDS011;59323;50.874;7.028;2023-04-25T05:40:53;14.80;;;3.23;;
71503;SDS011;59323;50.874;7.028;2023-04-25T05:43:18;12.47;;;3.10;;
71503;SDS011;59323;50.874;7.028;2023-04-25T05:45:44;16.17;;;3.17;;
71503;SDS011;59323;50.874;7.028;2023-04-25T05:48:09;15.53;;;3.37;;
71503;SDS011;59323;50.874;7.028;2023-04-25T05:50:35;12.45;;;2.80;;
71503;SDS011;59323;50.874;7.028;2023-04-25T05:53:00;13.57;;;2.90;;
71503;SDS011;59323;50.874;7.028;2023-04-25T05:55:25;11.73;;;3.27;;
71503;SDS011;59323;50.874;7.028;2023-04-25T05:57:51;16.63;;;3.17;;
71503;SDS011;59323;50.874;7.028;2023-04-25T06:00:16;13.63;;;3.23;;
71503;SDS011;59323;50.874;7.028;2023-04-25T06:02:43;15.95;;;3.83;;
71503;SDS011;59323;50.874;7.028;2023-04-25T06:05:09;17.47;;;3.13;;
71503;SDS011;59323;50.874;7.028;2023-04-25T06:07:34;18.25;;;3.40;;
71503;SDS011;59323;50.874;7.028;2023-04-25T06:10:00;13.37;;;3.53;;
71503;SDS011;59323;50.874;7.028;2023-04-25T06:12:25;19.30;;;3.53;;
71503;SDS011;59323;50.874;7.028;2023-04-25T06:14:51;12.60;;;2.80;;
71503;SDS011;59323;50.874;7.028;2023-04-25T06:17:16;22.73;;;3.60;;
71503;SDS011;59323;50.874;7.028;2023-04-25T06:19:42;19.53;;;3.40;;
71503;SDS011;59323;50.874;7.028;2023-04-25T06:22:07;16.00;;;3.40;;
71503;SDS011;59323;50.874;7.028;2023-04-25T06:24:33;15.75;;;3.50;;
71503;SDS011;59323;50.874;7.028;2023-04-25T06:26:58;15.40;;;3.47;;
71503;SDS011;59323;50.874;7.028;2023-04-25T06:29:23;13.77;;;3.60;;
71503;SDS011;59323;50.874;7.028;2023-04-25T06:31:49;15.90;;;3.38;;
71503;SDS011;59323;50.874;7.028;2023-04-25T06:34:15;18.20;;;3.50;;
71503;SDS011;59323;50.874;7.028;2023-04-25T06:36:40;14.63;;;3.43;;
71503;SDS011;59323;50.874;7.028;2023-04-25T06:39:09;13.85;;;3.55;;
71503;SDS011;59323;50.874;7.028;2023-04-25T06:41:35;14.90;;;3.35;;
71503;SDS011;59323;50.874;7.028;2023-04-25T06:44:00;17.00;;;3.37;;
71503;SDS011;59323;50.874;7.028;2023-04-25T06:46:26;11.30;;;3.17;;
71503;SDS011;59323;50.874;7.028;2023-04-25T06:48:51;18.37;;;3.03;;
71503;SDS011;59323;50.874;7.028;2023-04-25T06:51:17;17.85;;;2.65;;
71503;SDS011;59323;50.874;7.028;2023-04-25T06:53:42;15.93;;;3.03;;
71503;SDS011;59323;50.874;7.028;2023-04-25T06:56:07;16.40;;;3.20;;
71503;SDS011;59323;50.874;7.028;2023-04-25T06:58:33;13.00;;;3.10;;
71503;SDS011;59323;50.874;7.028;2023-04-25T07:00:58;13.17;;;2.90;;
71503;SDS011;59323;50.874;7.028;2023-04-25T07:03:24;12.45;;;3.30;;
71503;SDS011;59323;50.874;7.028;2023-04-25T07:05:49;13.70;;;2.70;;
71503;SDS011;59323;50.874;7.028;2023-04-25T07:08:15;13.88;;;2.95;;
71503;SDS011;59323;50.874;7.028;2023-04-25T07:10:41;16.88;;;3.38;;
71503;SDS011;59323;50.874;7.028;2023-04-25T07:13:06;18.13;;;3.50;;
71503;SDS011;59323;50.874;7.028;2023-04-25T07:15:32;11.40;;;3.30;;
71503;SDS011;59323;50.874;7.028;2023-04-25T07:17:58;16.25;;;2.97;;
71503;SDS011;59323;50.874;7.028;2023-04-25T07:20:23;13.67;;;2.90;;
71503;SDS011;59323;50.874;7.028;2023-04-25T07:22:48;17.93;;;2.83;;
71503;SDS011;59323;50.874;7.028;2023-04-25T07:25:15;13.48;;;3.28;;
71503;SDS011;59323;50.874;7.028;2023-04-25T07:27:40;14.17;;;2.77;;
71503;SDS011;59323;50.874;7.028;2023-04-25T07:30:06;17.67;;;2.93;;
71503;SDS011;59323;50.874;7.028;2023-04-25T07:32:32;11.57;;;3.20;;
71503;SDS011;59323;50.874;7.028;2023-04-25T07:34:57;15.23;;;4.07;;
71503;SDS011;59323;50.874;7.028;2023-04-25T07:37:23;11.30;;;2.90;;
71503;SDS011;59323;50.874;7.028;2023-04-25T07:39:48;12.40;;;2.80;;
71503;SDS011;59323;50.874;7.028;2023-04-25T07:42:13;15.70;;;2.73;;
71503;SDS011;59323;50.874;7.028;2023-04-25T07:44:39;13.27;;;3.23;;
71503;SDS011;59323;50.874;7.028;2023-04-25T07:47:08;11.13;;;2.63;;
71503;SDS011;59323;50.874;7.028;2023-04-25T07:49:35;11.60;;;3.00;;
71503;SDS011;59323;50.874;7.028;2023-04-25T07:52:01;14.75;;;3.13;;
71503;SDS011;59323;50.874;7.028;2023-04-25T07:54:27;10.43;;;2.35;;
71503;SDS011;59323;50.874;7.028;2023-04-25T07:56:53;10.27;;;2.00;;
71503;SDS011;59323;50.874;7.028;2023-04-25T07:59:19;13.83;;;2.20;;
71503;SDS011;59323;50.874;7.028;2023-04-25T08:01:44;11.40;;;1.77;;
71503;SDS011;59323;50.874;7.028;2023-04-25T08:04:10;9.63;;;2.40;;
71503;SDS011;59323;50.874;7.028;2023-04-25T08:06:36;10.85;;;2.22;;
71503;SDS011;59323;50.874;7.028;2023-04-25T08:09:01;11.37;;;2.67;;
71503;SDS011;59323;50.874;7.028;2023-04-25T08:11:27;12.15;;;3.10;;
71503;SDS011;59323;50.874;7.028;2023-04-25T08:13:53;12.60;;;3.33;;
71503;SDS011;59323;50.874;7.028;2023-04-25T08:16:18;13.77;;;2.43;;
71503;SDS011;59323;50.874;7.028;2023-04-25T08:18:43;13.00;;;2.87;;
71503;SDS011;59323;50.874;7.028;2023-04-25T08:21:09;11.82;;;2.78;;
71503;SDS011;59323;50.874;7.028;2023-04-25T08:23:36;11.80;;;2.90;;
71503;SDS011;59323;50.874;7.028;2023-04-25T08:26:02;8.93;;;2.63;;
71503;SDS011;59323;50.874;7.028;2023-04-25T08:28:27;11.80;;;3.00;;
71503;SDS011;59323;50.874;7.028;2023-04-25T08:30:53;14.43;;;3.70;;
71503;SDS011;59323;50.874;7.028;2023-04-25T08:33:18;10.60;;;2.90;;
71503;SDS011;59323;50.874;7.028;2023-04-25T08:35:44;8.60;;;2.60;;
71503;SDS011;59323;50.874;7.028;2023-04-25T08:38:09;13.85;;;3.15;;
71503;SDS011;59323;50.874;7.028;2023-04-25T08:40:36;9.23;;;2.47;;
71503;SDS011;59323;50.874;7.028;2023-04-25T08:43:03;11.55;;;1.63;;
71503;SDS011;59323;50.874;7.028;2023-04-25T08:45:31;12.10;;;2.03;;
71503;SDS011;59323;50.874;7.028;2023-04-25T08:47:57;10.60;;;1.83;;
71503;SDS011;59323;50.874;7.028;2023-04-25T08:50:23;7.63;;;2.13;;
71503;SDS011;59323;50.874;7.028;2023-04-25T08:52:51;6.82;;;1.60;;
71503;SDS011;59323;50.874;7.028;2023-04-25T08:55:19;6.60;;;1.58;;
71503;SDS011;59323;50.874;7.028;2023-04-25T08:57:46;11.02;;;2.38;;
71503;SDS011;59323;50.874;7.028;2023-04-25T09:00:12;8.37;;;1.43;;
71503;SDS011;59323;50.874;7.028;2023-04-25T09:02:39;8.40;;;1.95;;
71503;SDS011;59323;50.874;7.028;2023-04-25T09:05:05;10.65;;;1.98;;
71503;SDS011;59323;50.874;7.028;2023-04-25T09:07:31;7.95;;;1.83;;
71503;SDS011;59323;50.874;7.028;2023-04-25T09:09:57;10.10;;;2.10;;
71503;SDS011;59323;50.874;7.028;2023-04-25T09:12:24;10.30;;;2.47;;
71503;SDS011;59323;50.874;7.028;2023-04-25T09:15:05;12.00;;;2.00;;
71503;SDS011;59323;50.874;7.028;2023-04-25T09:17:32;10.85;;;2.05;;
71503;SDS011;59323;50.874;7.028;2023-04-25T09:20:07;7.83;;;1.60;;
71503;SDS011;59323;50.874;7.028;2023-04-25T09:22:37;12.15;;;2.13;;
71503;SDS011;59323;50.874;7.028;2023-04-25T09:25:12;8.80;;;1.37;;
71503;SDS011;59323;50.874;7.028;2023-04-25T09:27:50;12.63;;;2.50;;
71503;SDS011;59323;50.874;7.028;2023-04-25T09:30:17;10.13;;;2.03;;
71503;SDS011;59323;50.874;7.028;2023-04-25T09:32:43;10.00;;;1.80;;
71503;SDS011;59323;50.874;7.028;2023-04-25T09:35:09;11.90;;;1.50;;
71503;SDS011;59323;50.874;7.028;2023-04-25T09:37:36;10.50;;;1.52;;
71503;SDS011;59323;50.874;7.028;2023-04-25T09:40:05;6.03;;;1.40;;
71503;SDS011;59323;50.874;7.028;2023-04-25T09:42:32;10.80;;;1.70;;
71503;SDS011;59323;50.874;7.028;2023-04-25T09:44:59;7.93;;;1.58;;
71503;SDS011;59323;50.874;7.028;2023-04-25T09:47:28;7.97;;;1.77;;
71503;SDS011;59323;50.874;7.028;2023-04-25T09:49:54;7.93;;;1.30;;
71503;SDS011;59323;50.874;7.028;2023-04-25T09:52:23;8.88;;;1.50;;
71503;SDS011;59323;50.874;7.028;2023-04-25T09:54:50;9.57;;;1.40;;
71503;SDS011;59323;50.874;7.028;2023-04-25T09:57:17;7.73;;;1.60;;
71503;SDS011;59323;50.874;7.028;2023-04-25T09:59:45;10.52;;;1.50;;
71503;SDS011;59323;50.874;7.028;2023-04-25T10:02:12;6.88;;;1.30;;
71503;SDS011;59323;50.874;7.028;2023-04-25T10:04:38;9.27;;;1.52;;
71503;SDS011;59323;50.874;7.028;2023-04-25T10:07:06;9.27;;;1.73;;
71503;SDS011;59323;50.874;7.028;2023-04-25T10:09:32;7.33;;;1.60;;
71503;SDS011;59323;50.874;7.028;2023-04-25T10:11:59;8.40;;;1.92;;
71503;SDS011;59323;50.874;7.028;2023-04-25T10:14:25;12.45;;;2.00;;
71503;SDS011;59323;50.874;7.028;2023-04-25T10:16:51;12.45;;;1.80;;
71503;SDS011;59323;50.874;7.028;2023-04-25T10:19:19;8.88;;;1.67;;
71503;SDS011;59323;50.874;7.028;2023-04-25T10:21:50;11.77;;;1.67;;
71503;SDS011;59323;50.874;7.028;2023-04-25T10:24:17;8.13;;;1.30;;
71503;SDS011;59323;50.874;7.028;2023-04-25T10:26:44;9.07;;;1.33;;
71503;SDS011;59323;50.874;7.028;2023-04-25T10:29:10;10.60;;;2.05;;
71503;SDS011;59323;50.874;7.028;2023-04-25T10:31:38;13.83;;;2.03;;
71503;SDS011;59323;50.874;7.028;2023-04-25T10:34:10;7.93;;;1.38;;
71503;SDS011;59323;50.874;7.028;2023-04-25T10:36:35;8.90;;;1.43;;
71503;SDS011;59323;50.874;7.028;2023-04-25T10:39:03;6.15;;;1.65;;
71503;SDS011;59323;50.874;7.028;2023-04-25T10:41:32;8.38;;;1.80;;
71503;SDS011;59323;50.874;7.028;2023-04-25T10:44:11;6.80;;;1.10;;
71503;SDS011;59323;50.874;7.028;2023-04-25T10:46:36;6.87;;;1.83;;
71503;SDS011;59323;50.874;7.028;2023-04-25T10:49:02;10.73;;;1.80;;
71503;SDS011;59323;50.874;7.028;2023-04-25T10:53:58;10.17;;;1.97;;
71503;SDS011;59323;50.874;7.028;2023-04-25T10:56:28;10.52;;;1.38;;
71503;SDS011;59323;50.874;7.028;2023-04-25T10:59:05;7.03;;;1.58;;
71503;SDS011;59323;50.874;7.028;2023-04-25T11:01:47;9.25;;;1.38;;
71503;SDS011;59323;50.874;7.028;2023-04-25T11:04:23;7.22;;;1.40;;
71503;SDS011;59323;50.874;7.028;2023-04-25T11:06:55;5.60;;;1.07;;
71503;SDS011;59323;50.874;7.028;2023-04-25T11:09:27;7.75;;;1.20;;
71503;SDS011;59323;50.874;7.028;2023-04-25T11:11:56;9.82;;;1.50;;
71503;SDS011;59323;50.874;7.028;2023-04-25T11:14:23;6.10;;;1.00;;
71503;SDS011;59323;50.874;7.028;2023-04-25T11:16:55;6.50;;;1.40;;
71503;SDS011;59323;50.874;7.028;2023-04-25T11:19:22;8.60;;;1.35;;
71503;SDS011;59323;50.874;7.028;2023-04-25T11:21:49;7.10;;;1.27;;
71503;SDS011;59323;50.874;7.028;2023-04-25T11:24:17;7.40;;;1.20;;
71503;SDS011;59323;50.874;7.028;2023-04-25T11:26:43;7.97;;;1.23;;
71503;SDS011;59323;50.874;7.028;2023-04-25T11:29:11;5.88;;;1.50;;
71503;SDS011;59323;50.874;7.028;2023-04-25T11:31:36;10.40;;;1.50;;
71503;SDS011;59323;50.874;7.028;2023-04-25T11:34:02;5.97;;;1.23;;
71503;SDS011;59323;50.874;7.028;2023-04-25T11:36:27;6.63;;;1.30;;
71503;SDS011;59323;50.874;7.028;2023-04-25T11:38:53;6.13;;;1.35;;
71503;SDS011;59323;50.874;7.028;2023-04-25T11:41:19;6.70;;;1.10;;
71503;SDS011;59323;50.874;7.028;2023-04-25T11:43:47;9.05;;;1.48;;
71503;SDS011;59323;50.874;7.028;2023-04-25T11:46:13;5.72;;;1.15;;
71503;SDS011;59323;50.874;7.028;2023-04-25T11:48:42;8.77;;;1.53;;
71503;SDS011;59323;50.874;7.028;2023-04-25T11:51:08;7.18;;;1.00;;
71503;SDS011;59323;50.874;7.028;2023-04-25T11:53:34;4.53;;;1.00;;
71503;SDS011;59323;50.874;7.028;2023-04-25T11:56:00;6.80;;;1.00;;
71503;SDS011;59323;50.874;7.028;2023-04-25T11:58:26;8.18;;;1.55;;
71503;SDS011;59323;50.874;7.028;2023-04-25T12:00:51;6.88;;;1.52;;
71503;SDS011;59323;50.874;7.028;2023-04-25T12:03:17;5.47;;;1.17;;
71503;SDS011;59323;50.874;7.028;2023-04-25T12:05:43;8.60;;;1.42;;
71503;SDS011;59323;50.874;7.028;2023-04-25T12:08:13;9.83;;;1.27;;
71503;SDS011;59323;50.874;7.028;2023-04-25T12:10:41;6.82;;;1.33;;
71503;SDS011;59323;50.874;7.028;2023-04-25T12:15:46;5.63;;;1.27;;
71503;SDS011;59323;50.874;7.028;2023-04-25T12:18:11;7.67;;;1.27;;
71503;SDS011;59323;50.874;7.028;2023-04-25T12:20:36;6.50;;;1.33;;
71503;SDS011;59323;50.874;7.028;2023-04-25T12:23:05;5.88;;;1.30;;
71503;SDS011;59323;50.874;7.028;2023-04-25T12:25:39;3.23;;;0.70;;
71503;SDS011;59323;50.874;7.028;2023-04-25T12:33:39;5.03;;;1.15;;
71503;SDS011;59323;50.874;7.028;2023-04-25T12:36:06;9.50;;;1.25;;
71503;SDS011;59323;50.874;7.028;2023-04-25T12:38:39;4.43;;;0.70;;
71503;SDS011;59323;50.874;7.028;2023-04-25T12:41:06;5.55;;;0.90;;
71503;SDS011;59323;50.874;7.028;2023-04-25T12:43:32;6.25;;;1.00;;
71503;SDS011;59323;50.874;7.028;2023-04-25T12:45:57;6.77;;;1.20;;
71503;SDS011;59323;50.874;7.028;2023-04-25T12:48:23;9.00;;;1.30;;
71503;SDS011;59323;50.874;7.028;2023-04-25T12:50:49;8.30;;;1.33;;
71503;SDS011;59323;50.874;7.028;2023-04-25T12:53:16;4.60;;;1.05;;
71503;SDS011;59323;50.874;7.028;2023-04-25T12:55:41;4.85;;;1.50;;
71503;SDS011;59323;50.874;7.028;2023-04-25T12:58:07;4.23;;;1.30;;
71503;SDS011;59323;50.874;7.028;2023-04-25T13:00:32;4.20;;;1.10;;
71503;SDS011;59323;50.874;7.028;2023-04-25T13:02:57;4.33;;;1.00;;
71503;SDS011;59323;50.874;7.028;2023-04-25T13:05:23;5.93;;;1.40;;
71503;SDS011;59323;50.874;7.028;2023-04-25T13:07:48;6.97;;;1.13;;
71503;SDS011;59323;50.874;7.028;2023-04-25T13:10:14;6.83;;;1.03;;
71503;SDS011;59323;50.874;7.028;2023-04-25T13:12:39;5.15;;;1.10;;
71503;SDS011;59323;50.874;7.028;2023-04-25T13:15:05;5.83;;;1.13;;
71503;SDS011;59323;50.874;7.028;2023-04-25T13:17:31;5.00;;;1.20;;
71503;SDS011;59323;50.874;7.028;2023-04-25T13:19:57;6.83;;;1.20;;
71503;SDS011;59323;50.874;7.028;2023-04-25T13:22:22;5.50;;;1.33;;
71503;SDS011;59323;50.874;7.028;2023-04-25T13:24:47;5.20;;;1.07;;
71503;SDS011;59323;50.874;7.028;2023-04-25T13:27:13;3.73;;;1.17;;
71503;SDS011;59323;50.874;7.028;2023-04-25T13:29:38;5.83;;;1.13;;
71503;SDS011;59323;50.874;7.028;2023-04-25T13:32:05;5.18;;;1.13;;
71503;SDS011;59323;50.874;7.028;2023-04-25T13:34:31;7.07;;;1.23;;
71503;SDS011;59323;50.874;7.028;2023-04-25T13:36:57;6.83;;;1.50;;
71503;SDS011;59323;50.874;7.028;2023-04-25T13:39:22;5.75;;;1.05;;
71503;SDS011;59323;50.874;7.028;2023-04-25T13:41:47;3.37;;;0.87;;
71503;SDS011;59323;50.874;7.028;2023-04-25T13:44:13;5.00;;;1.53;;
71503;SDS011;59323;50.874;7.028;2023-04-25T13:46:38;5.30;;;1.00;;
71503;SDS011;59323;50.874;7.028;2023-04-25T13:49:04;4.25;;;0.95;;
71503;SDS011;59323;50.874;7.028;2023-04-25T13:51:30;5.83;;;1.40;;
71503;SDS011;59323;50.874;7.028;2023-04-25T13:53:56;6.13;;;1.42;;
71503;SDS011;59323;50.874;7.028;2023-04-25T13:56:21;5.40;;;0.97;;
71503;SDS011;59323;50.874;7.028;2023-04-25T13:58:48;2.78;;;0.95;;
71503;SDS011;59323;50.874;7.028;2023-04-25T14:01:13;4.47;;;1.10;;
71503;SDS011;59323;50.874;7.028;2023-04-25T14:03:39;4.53;;;0.87;;
71503;SDS011;59323;50.874;7.028;2023-04-25T14:06:04;4.73;;;1.20;;
71503;SDS011;59323;50.874;7.028;2023-04-25T14:08:30;2.75;;;0.90;;
71503;SDS011;59323;50.874;7.028;2023-04-25T14:10:55;4.10;;;1.20;;
71503;SDS011;59323;50.874;7.028;2023-04-25T14:13:21;4.67;;;1.00;;
71503;SDS011;59323;50.874;7.028;2023-04-25T14:15:48;6.05;;;1.02;;
71503;SDS011;59323;50.874;7.028;2023-04-25T14:18:15;6.63;;;1.27;;
71503;SDS011;59323;50.874;7.028;2023-04-25T14:20:40;4.07;;;1.20;;
71503;SDS011;59323;50.874;7.028;2023-04-25T14:23:06;3.63;;;0.80;;
71503;SDS011;59323;50.874;7.028;2023-04-25T14:25:31;4.10;;;0.90;;
71503;SDS011;59323;50.874;7.028;2023-04-25T14:27:57;4.53;;;1.13;;
71503;SDS011;59323;50.874;7.028;2023-04-25T14:30:22;3.97;;;1.20;;
71503;SDS011;59323;50.874;7.028;2023-04-25T14:32:51;2.42;;;0.80;;
71503;SDS011;59323;50.874;7.028;2023-04-25T14:35:16;3.33;;;0.90;;
71503;SDS011;59323;50.874;7.028;2023-04-25T14:37:42;2.73;;;0.70;;
71503;SDS011;59323;50.874;7.028;2023-04-25T14:40:07;2.80;;;1.00;;
71503;SDS011;59323;50.874;7.028;2023-04-25T14:42:38;3.90;;;1.10;;
71503;SDS011;59323;50.874;7.028;2023-04-25T14:45:04;3.33;;;0.90;;
71503;SDS011;59323;50.874;7.028;2023-04-25T14:47:31;5.13;;;0.90;;
71503;SDS011;59323;50.874;7.028;2023-04-25T14:49:57;2.77;;;0.90;;
71503;SDS011;59323;50.874;7.028;2023-04-25T14:52:22;5.73;;;1.30;;
71503;SDS011;59323;50.874;7.028;2023-04-25T14:54:48;2.85;;;0.63;;